Alanya, Turkey
Current Conditions -  °F | °C
As of 11:50 PM on Friday 24 Oct 2014 (Local Time) from LTAI Reporting Station
Thunderstorm Thunderstorm  
Wind Chill: 63°   Ceiling: 3000
Heat Index: 63°   Visibility: 6mi
Dew Point: 59°   Wind: 9mph
Humidity: 88%   Direction: 90°E
Pressure: 29.94"   Gusts: NA
Location:  36.56°N, 32°E
Report Text: LTAI 242050Z 09008KT 060V140 9999 TS FEW015CB BKN030 17/15 Q1014 BECMG 15012KT -TSRA
Loading
Personal Weather Stations






























Interactive Weather Map
Tropical Storm Tracking
New forecast layout! Learn more

10-Day Weather Forecast

Advertisements
Track Severe Weather on mobile